Time;durP1;ratioP1;P1;durP2;ratioP2;P2;SDS_P1;SDS_P2;PMS_P1;PMS_P2;Temp;Humidity;BMP_temperature;BMP_pressure;BME280_temperature;BME280_humidity;BME280_pressure;Samples;Min_cycle;Max_cycle;Signal;HPM_P1;HPM_P2
2021/01/01 00:00:49;;;;;;;85.55;49.08;;;;;;;1.13;94.39;100543.09;5039503;28;20025;-77
2021/01/01 00:03:15;;;;;;;86.85;49.03;;;;;;;1.00;94.59;100530.97;5027330;28;20598;-78
2021/01/01 00:05:43;;;;;;;72.05;43.05;;;;;;;1.19;94.75;100541.88;5048186;28;20098;-76
2021/01/01 00:08:09;;;;;;;66.50;37.92;;;;;;;1.18;94.62;100550.53;5024886;28;20033;-78
2021/01/01 00:10:34;;;;;;;60.00;37.67;;;;;;;1.13;95.01;100550.81;5013614;28;20032;-76
2021/01/01 00:13:00;;;;;;;70.95;40.95;;;;;;;1.16;94.62;100545.47;5042101;28;20068;-77
2021/01/01 00:15:25;;;;;;;59.70;35.88;;;;;;;1.21;94.89;100555.53;5043497;28;20060;-78
2021/01/01 00:17:51;;;;;;;59.63;36.30;;;;;;;1.16;94.57;100540.28;5055418;28;20108;-78
2021/01/01 00:20:17;;;;;;;59.83;36.60;;;;;;;1.26;94.20;100545.78;5046917;28;20067;-78
2021/01/01 00:22:42;;;;;;;57.10;34.08;;;;;;;1.33;94.27;100552.22;5043353;28;20063;-77
2021/01/01 00:25:09;;;;;;;61.75;36.80;;;;;;;1.33;94.10;100552.22;5038852;28;20053;-78
2021/01/01 00:27:35;;;;;;;59.10;36.45;;;;;;;1.38;94.15;100553.72;5041516;28;20033;-78
2021/01/01 00:30:00;;;;;;;58.42;34.80;;;;;;;1.49;93.41;100548.72;5057517;28;20029;-78
2021/01/01 00:32:26;;;;;;;59.42;35.13;;;;;;;1.41;93.72;100546.56;5046010;28;20043;-77
2021/01/01 00:34:51;;;;;;;62.22;38.03;;;;;;;1.48;93.34;100549.63;5044978;28;20041;-78
2021/01/01 00:37:17;;;;;;;57.08;34.85;;;;;;;1.49;93.24;100546.97;5051637;28;20033;-78
2021/01/01 00:39:43;;;;;;;60.45;37.33;;;;;;;1.55;93.19;100559.50;5054814;28;20017;-79
2021/01/01 00:42:08;;;;;;;60.22;35.83;;;;;;;1.55;93.27;100558.69;5065360;28;20044;-77
2021/01/01 00:44:34;;;;;;;61.55;36.40;;;;;;;1.50;93.64;100551.19;5071494;28;20058;-79
2021/01/01 00:47:00;;;;;;;65.13;35.72;;;;;;;1.52;93.92;100556.28;5063008;28;20040;-79
2021/01/01 00:49:26;;;;;;;59.35;36.22;;;;;;;1.50;94.06;100558.94;5057444;28;20182;-77
2021/01/01 00:51:52;;;;;;;56.85;34.03;;;;;;;1.52;93.83;100548.53;5045079;28;20049;-78
2021/01/01 00:54:17;;;;;;;56.72;33.47;;;;;;;1.58;94.06;100553.31;5046147;28;20380;-78
2021/01/01 00:56:43;;;;;;;48.88;29.45;;;;;;;1.55;94.03;100551.75;5027297;28;20124;-79
2021/01/01 00:59:08;;;;;;;44.92;27.50;;;;;;;1.63;93.71;100558.22;5049518;28;20043;-78
2021/01/01 01:01:34;;;;;;;45.05;27.25;;;;;;;1.61;94.23;100550.56;5043610;28;20532;-79
2021/01/01 01:03:59;;;;;;;39.72;25.70;;;;;;;1.61;93.39;100547.16;5061396;28;20083;-78
2021/01/01 01:06:26;;;;;;;40.35;23.55;;;;;;;1.62;92.71;100547.06;5028693;28;20029;-78
2021/01/01 01:08:52;;;;;;;33.92;21.05;;;;;;;1.65;92.93;100549.44;5036250;28;20034;-78
2021/01/01 01:11:26;;;;;;;32.63;20.45;;;;;;;1.61;93.33;100541.97;5041841;28;20056;-78
2021/01/01 01:13:52;;;;;;;35.13;20.83;;;;;;;1.73;92.46;100542.06;5036634;28;20106;-77
2021/01/01 01:16:25;;;;;;;30.58;20.88;;;;;;;1.73;91.96;100548.97;5030169;28;20025;-77
2021/01/01 01:18:51;;;;;;;32.30;19.85;;;;;;;1.71;92.14;100554.25;5042224;28;20120;-76
2021/01/01 01:21:18;;;;;;;34.58;19.67;;;;;;;1.76;91.56;100551.38;5045374;28;20108;-76
2021/01/01 01:23:44;;;;;;;36.08;20.05;;;;;;;1.80;91.02;100537.31;5053346;28;20051;-76
2021/01/01 01:26:09;;;;;;;31.85;18.92;;;;;;;1.85;91.42;100550.00;5044185;28;20029;-77
2021/01/01 01:28:35;;;;;;;34.92;19.80;;;;;;;1.84;91.36;100549.13;5053494;28;20028;-79
2021/01/01 01:31:00;;;;;;;28.45;18.98;;;;;;;1.83;91.18;100546.63;5051744;28;20058;-79
2021/01/01 01:33:26;;;;;;;34.85;19.30;;;;;;;1.82;90.90;100547.56;5041082;28;20079;-78
2021/01/01 01:35:51;;;;;;;28.90;18.48;;;;;;;1.82;91.03;100545.00;5037368;28;20063;-78
2021/01/01 01:38:17;;;;;;;30.17;17.95;;;;;;;1.80;91.10;100546.84;5052682;28;20096;-78
2021/01/01 01:40:43;;;;;;;30.23;18.15;;;;;;;1.84;90.74;100550.91;5045469;28;20045;-78
2021/01/01 01:43:08;;;;;;;27.23;16.55;;;;;;;1.83;90.38;100550.06;5055061;28;20029;-77
2021/01/01 01:45:34;;;;;;;28.08;16.92;;;;;;;1.80;90.54;100550.25;5035779;28;20111;-79
2021/01/01 01:48:01;;;;;;;31.73;17.58;;;;;;;1.84;90.35;100558.66;5053191;28;20068;-78
2021/01/01 01:50:27;;;;;;;27.55;16.67;;;;;;;1.71;90.82;100549.09;5030520;28;20041;-79
2021/01/01 01:52:53;;;;;;;25.77;16.30;;;;;;;1.80;90.29;100547.66;5034723;28;20029;-77
2021/01/01 01:55:19;;;;;;;28.85;17.48;;;;;;;1.85;90.34;100557.75;5036714;28;20055;-77
2021/01/01 01:57:44;;;;;;;36.35;20.83;;;;;;;1.79;90.53;100551.19;5053885;28;20479;-77
2021/01/01 02:02:48;;;;;;;34.30;19.38;;;;;;;1.77;90.96;100557.38;5047044;28;20036;-80
2021/01/01 02:05:14;;;;;;;31.50;18.33;;;;;;;1.79;90.88;100558.94;5034761;28;20530;-78
2021/01/01 02:07:40;;;;;;;32.05;18.10;;;;;;;1.77;90.71;100563.34;5037431;28;20036;-77
2021/01/01 02:10:07;;;;;;;27.70;16.90;;;;;;;1.73;90.41;100548.97;5037842;28;20029;-77
2021/01/01 02:12:33;;;;;;;26.77;15.93;;;;;;;1.75;90.91;100560.03;5018683;28;20033;-78
2021/01/01 02:14:58;;;;;;;30.13;16.80;;;;;;;1.76;90.34;100566.88;5050068;28;20597;-77
2021/01/01 02:17:24;;;;;;;27.77;17.38;;;;;;;1.82;90.25;100574.25;5035931;28;20028;-78
2021/01/01 02:20:06;;;;;;;29.80;17.08;;;;;;;1.76;91.03;100569.47;5019533;28;20045;-78
2021/01/01 02:22:36;;;;;;;27.30;16.00;;;;;;;1.70;91.12;100570.69;5038859;28;20044;-79
2021/01/01 02:25:07;;;;;;;27.45;16.95;;;;;;;1.78;90.64;100577.97;5045302;28;20411;-77
2021/01/01 02:27:33;;;;;;;25.65;16.90;;;;;;;1.72;90.92;100565.41;5024519;28;20068;-79
2021/01/01 02:29:58;;;;;;;27.10;16.92;;;;;;;1.78;91.05;100572.78;5039241;28;20041;-77
2021/01/01 02:32:24;;;;;;;29.23;17.20;;;;;;;1.82;90.90;100571.69;5007227;28;20036;-79
2021/01/01 02:34:49;;;;;;;27.40;16.98;;;;;;;1.73;91.57;100577.41;5049977;28;20040;-77
2021/01/01 02:37:15;;;;;;;30.05;17.33;;;;;;;1.72;91.22;100575.75;5050952;28;20113;-80
2021/01/01 02:39:41;;;;;;;27.60;17.17;;;;;;;1.76;91.00;100577.22;5019682;28;20045;-78
2021/01/01 02:42:06;;;;;;;26.33;16.10;;;;;;;1.78;91.29;100577.16;5032607;28;20040;-78
2021/01/01 02:44:32;;;;;;;26.17;16.05;;;;;;;1.83;91.25;100581.09;5029155;28;20392;-79
2021/01/01 02:47:02;;;;;;;26.08;16.40;;;;;;;1.91;90.36;100583.22;5050433;28;20048;-79
2021/01/01 02:49:28;;;;;;;29.25;17.05;;;;;;;1.88;90.51;100578.22;5056954;28;20527;-77
2021/01/01 02:51:54;;;;;;;28.10;17.35;;;;;;;1.92;90.04;100580.53;5051705;28;20116;-77
2021/01/01 02:54:20;;;;;;;28.25;17.17;;;;;;;1.84;90.53;100582.75;5046681;28;20400;-76
2021/01/01 02:56:46;;;;;;;29.35;17.90;;;;;;;1.81;90.56;100566.59;5027919;28;20168;-77
2021/01/01 02:59:11;;;;;;;27.52;16.75;;;;;;;1.85;89.97;100581.84;5015205;28;20032;-78
2021/01/01 03:01:37;;;;;;;27.52;17.23;;;;;;;1.79;90.26;100576.19;5048184;28;20457;-77
2021/01/01 03:04:02;;;;;;;30.98;18.58;;;;;;;1.79;90.48;100573.63;5050809;28;20497;-78
2021/01/01 03:06:29;;;;;;;29.02;17.92;;;;;;;1.79;90.53;100578.78;5022253;28;20055;-77
2021/01/01 03:08:54;;;;;;;29.50;17.65;;;;;;;1.69;91.16;100570.78;5038888;28;20037;-76
2021/01/01 03:11:20;;;;;;;28.35;17.67;;;;;;;1.75;91.06;100581.59;5041871;28;20585;-75
2021/01/01 03:13:46;;;;;;;29.13;18.55;;;;;;;1.73;91.20;100574.81;5028649;28;20499;-76
2021/01/01 03:16:11;;;;;;;27.50;17.13;;;;;;;1.81;90.67;100576.94;5039212;28;20033;-76
2021/01/01 03:18:37;;;;;;;30.20;17.52;;;;;;;1.77;90.85;100578.06;5025137;28;20034;-76
2021/01/01 03:21:03;;;;;;;31.02;17.48;;;;;;;1.73;91.08;100580.00;5043515;28;20102;-80
2021/01/01 03:23:29;;;;;;;29.67;17.30;;;;;;;1.87;90.84;100581.75;5033046;28;20048;-80
2021/01/01 03:25:54;;;;;;;28.60;17.77;;;;;;;1.79;90.55;100574.47;5049069;28;20037;-80
2021/01/01 03:28:20;;;;;;;31.10;18.60;;;;;;;1.83;90.57;100573.34;5016655;28;20063;-79
2021/01/01 03:30:45;;;;;;;28.25;18.10;;;;;;;1.88;90.53;100573.88;5024684;28;20120;-80
2021/01/01 03:33:11;;;;;;;31.52;19.08;;;;;;;1.89;90.45;100580.72;5012135;28;20163;-80
2021/01/01 03:35:36;;;;;;;34.42;18.77;;;;;;;1.85;90.53;100568.09;5041511;28;20570;-80
2021/01/01 03:38:02;;;;;;;33.92;18.25;;;;;;;1.84;91.04;100576.75;5050498;28;20045;-78
2021/01/01 03:40:28;;;;;;;30.33;18.67;;;;;;;1.85;90.76;100574.09;5015805;28;20048;-79
2021/01/01 03:42:53;;;;;;;32.20;19.30;;;;;;;1.86;90.81;100572.31;5031156;28;20057;-79
2021/01/01 03:45:19;;;;;;;33.30;19.80;;;;;;;1.80;90.93;100565.78;5045290;28;20040;-78
2021/01/01 03:47:44;;;;;;;34.95;19.25;;;;;;;1.85;91.00;100562.91;5063310;28;20655;-79
2021/01/01 03:50:10;;;;;;;35.22;20.17;;;;;;;1.75;91.32;100562.63;5009368;28;20041;-79
2021/01/01 03:52:35;;;;;;;31.90;18.83;;;;;;;1.73;91.39;100569.66;5041949;28;20029;-79
2021/01/01 03:55:02;;;;;;;31.08;18.17;;;;;;;1.58;92.31;100571.41;5040230;28;20044;-79
2021/01/01 03:57:27;;;;;;;32.45;18.42;;;;;;;1.50;93.11;100574.47;5031887;28;20098;-78
2021/01/01 03:59:52;;;;;;;29.77;18.20;;;;;;;1.48;93.39;100575.47;5031492;28;20040;-78
2021/01/01 04:02:18;;;;;;;33.75;18.45;;;;;;;1.46;93.15;100578.16;5026931;28;20035;-78
2021/01/01 04:04:43;;;;;;;28.05;17.15;;;;;;;1.43;93.09;100570.59;5046737;28;20037;-79
2021/01/01 04:07:09;;;;;;;33.17;19.85;;;;;;;1.44;93.61;100574.00;5038641;28;20037;-79
2021/01/01 04:09:34;;;;;;;32.70;17.67;;;;;;;1.40;93.79;100572.53;5022315;28;20040;-80
2021/01/01 04:12:01;;;;;;;31.55;18.25;;;;;;;1.57;93.28;100566.34;5039887;28;20111;-80
2021/01/01 04:14:27;;;;;;;31.02;18.65;;;;;;;1.64;92.90;100571.06;5038952;28;20104;-79
2021/01/01 04:16:52;;;;;;;34.90;18.90;;;;;;;1.58;92.83;100574.00;5031639;28;20517;-78
2021/01/01 04:19:18;;;;;;;29.02;17.67;;;;;;;1.51;93.50;100575.31;5047211;28;20044;-79
2021/01/01 04:21:50;;;;;;;27.25;17.65;;;;;;;1.44;93.51;100566.25;5031122;28;20491;-80
2021/01/01 04:24:16;;;;;;;27.92;18.05;;;;;;;1.53;93.01;100566.53;5050896;28;20041;-80
2021/01/01 04:26:42;;;;;;;31.02;17.60;;;;;;;1.73;92.57;100582.59;5039246;28;20087;-80
2021/01/01 04:29:08;;;;;;;30.58;18.13;;;;;;;1.65;93.13;100583.06;5054369;28;20037;-79
2021/01/01 04:31:35;;;;;;;31.50;18.85;;;;;;;1.57;93.16;100579.28;5059701;28;20056;-79
2021/01/01 04:34:02;;;;;;;30.30;18.80;;;;;;;1.55;93.20;100581.97;5037624;28;20037;-78
2021/01/01 04:36:27;;;;;;;33.25;18.30;;;;;;;1.53;93.41;100578.63;5053310;28;20037;-79
2021/01/01 04:38:53;;;;;;;25.35;14.73;;;;;;;1.47;94.24;100581.56;5050515;28;20045;-78
2021/01/01 04:41:20;;;;;;;34.38;20.58;;;;;;;1.46;93.88;100574.75;5030037;28;20518;-78
2021/01/01 04:43:48;;;;;;;34.42;20.30;;;;;;;1.52;93.65;100576.97;5056049;28;20056;-79
2021/01/01 04:46:13;;;;;;;36.55;20.95;;;;;;;1.49;93.63;100584.91;5039902;28;20589;-76
2021/01/01 04:48:40;;;;;;;39.17;21.52;;;;;;;1.46;94.45;100579.91;5060123;28;20119;-80
2021/01/01 04:51:07;;;;;;;35.17;21.42;;;;;;;1.46;94.10;100585.91;5051213;28;20155;-79
2021/01/01 04:53:36;;;;;;;36.95;22.23;;;;;;;1.49;93.46;100583.16;5035864;28;20103;-79
2021/01/01 04:56:02;;;;;;;37.45;20.83;;;;;;;1.57;93.44;100576.69;5050184;28;20482;-80
2021/01/01 04:58:29;;;;;;;45.70;23.38;;;;;;;1.79;92.41;100579.66;5013786;28;20041;-79
2021/01/01 05:00:54;;;;;;;51.33;25.55;;;;;;;1.83;91.87;100585.44;5035722;28;20039;-79
2021/01/01 05:03:19;;;;;;;46.58;24.55;;;;;;;1.90;91.50;100587.56;5047526;28;20116;-79
2021/01/01 05:05:52;;;;;;;47.85;24.52;;;;;;;1.92;91.55;100584.88;5053546;28;20507;-79
2021/01/01 05:08:18;;;;;;;47.53;25.90;;;;;;;1.97;91.33;100590.59;5054520;28;20042;-78
2021/01/01 05:10:45;;;;;;;48.35;24.02;;;;;;;1.94;91.14;100586.44;5047800;28;20070;-78
2021/01/01 05:13:12;;;;;;;49.72;26.95;;;;;;;1.95;90.80;100588.09;5052007;28;20447;-79
2021/01/01 05:15:38;;;;;;;56.97;28.70;;;;;;;2.01;90.67;100588.66;5046574;28;20124;-81
2021/01/01 05:18:24;;;;;;;51.20;28.08;;;;;;;2.01;90.77;100592.06;5026217;28;20037;-80
2021/01/01 05:20:54;;;;;;;59.28;30.02;;;;;;;1.97;90.65;100592.38;5046423;28;20124;-80
2021/01/01 05:23:24;;;;;;;53.08;28.58;;;;;;;1.89;91.07;100593.66;5036005;28;20053;-78
2021/01/01 05:26:10;;;;;;;59.50;28.17;;;;;;;1.80;91.82;100589.03;5054381;28;20099;-79
2021/01/01 05:28:51;;;;;;;52.60;27.35;;;;;;;1.79;91.98;100595.16;5038775;28;20038;-78
2021/01/01 05:31:17;;;;;;;57.60;27.70;;;;;;;1.76;92.09;100592.75;5055867;28;20048;-80
2021/01/01 05:33:50;;;;;;;57.25;27.67;;;;;;;1.67;92.95;100588.97;5045416;28;20042;-79
2021/01/01 05:36:16;;;;;;;49.85;26.40;;;;;;;1.62;92.89;100600.50;5014602;28;20029;-79
2021/01/01 05:38:41;;;;;;;47.42;24.90;;;;;;;1.53;93.25;100594.97;5029750;28;20052;-79
2021/01/01 05:41:07;;;;;;;58.08;29.85;;;;;;;1.46;93.51;100590.25;5038065;28;20048;-79
2021/01/01 05:43:32;;;;;;;62.50;29.85;;;;;;;1.41;93.69;100589.69;5038762;28;20032;-81
2021/01/01 05:46:08;;;;;;;52.17;26.65;;;;;;;1.44;93.98;100598.09;5049859;28;20038;-79
2021/01/01 05:48:34;;;;;;;56.42;29.42;;;;;;;1.50;93.70;100599.50;5047390;28;20037;-80
2021/01/01 05:51:07;;;;;;;57.78;29.42;;;;;;;1.52;94.00;100600.22;5068701;28;20029;-79
2021/01/01 05:53:33;;;;;;;59.00;29.70;;;;;;;1.49;93.66;100598.66;5052105;28;20043;-79
2021/01/01 05:56:09;;;;;;;55.05;31.05;;;;;;;1.45;94.42;100610.13;5036335;28;20036;-80
2021/01/01 05:58:35;;;;;;;57.05;28.48;;;;;;;1.42;94.60;100607.69;5055572;28;20457;-80
2021/01/01 06:01:03;;;;;;;49.67;26.15;;;;;;;1.42;95.19;100609.47;5038039;28;20040;-79
2021/01/01 06:03:33;;;;;;;56.90;27.92;;;;;;;1.40;95.12;100614.72;5034637;28;20033;-79
2021/01/01 06:06:04;;;;;;;55.28;31.15;;;;;;;1.58;94.92;100614.53;5046435;28;20132;-79
2021/01/01 06:08:31;;;;;;;54.95;30.02;;;;;;;1.69;93.40;100612.13;5044690;28;20033;-79
2021/01/01 06:11:04;;;;;;;59.13;28.10;;;;;;;1.65;93.51;100616.66;5041413;28;20041;-79
2021/01/01 06:13:32;;;;;;;50.60;26.05;;;;;;;1.55;94.05;100624.16;5051581;28;20029;-80
2021/01/01 06:16:00;;;;;;;51.20;26.83;;;;;;;1.50;94.73;100625.34;5053073;28;20037;-79
2021/01/01 06:18:28;;;;;;;54.58;26.05;;;;;;;1.49;94.92;100621.09;5040822;28;20025;-79
2021/01/01 06:21:01;;;;;;;58.85;30.05;;;;;;;1.45;94.52;100628.22;5007148;28;20047;-79
2021/01/01 06:23:31;;;;;;;57.15;29.33;;;;;;;1.42;94.86;100630.13;5025234;28;20582;-81
2021/01/01 06:26:01;;;;;;;56.00;28.23;;;;;;;1.40;94.79;100630.22;5051791;28;20078;-80
2021/01/01 06:28:27;;;;;;;51.15;26.85;;;;;;;1.40;94.36;100627.63;5031191;28;20531;-79
2021/01/01 06:30:58;;;;;;;52.22;26.25;;;;;;;1.40;94.57;100626.81;5039216;28;20032;-80
2021/01/01 06:33:24;;;;;;;49.30;25.88;;;;;;;1.40;94.62;100637.97;5051446;28;20033;-78
2021/01/01 06:35:51;;;;;;;47.63;24.08;;;;;;;1.38;95.12;100631.25;5052424;28;20662;-80
2021/01/01 06:38:35;;;;;;;53.58;28.42;;;;;;;1.38;95.28;100639.81;5027300;28;20047;-79
2021/01/01 06:41:01;;;;;;;69.38;31.05;;;;;;;1.38;95.15;100652.75;5033989;28;20686;-80
2021/01/01 06:43:49;;;;;;;53.95;27.00;;;;;;;1.49;94.50;100647.78;5035356;28;20029;-80
2021/01/01 06:46:14;;;;;;;55.92;26.55;;;;;;;1.38;95.13;100657.91;5053256;28;20045;-81
2021/01/01 06:48:40;;;;;;;46.55;24.15;;;;;;;1.37;95.24;100656.25;5045604;28;20083;-79
2021/01/01 06:51:14;;;;;;;50.13;25.85;;;;;;;1.53;94.62;100664.78;5023146;28;20130;-78
2021/01/01 06:53:41;;;;;;;52.78;25.60;;;;;;;1.61;92.88;100658.31;5043312;28;20120;-80
2021/01/01 06:56:11;;;;;;;51.58;26.13;;;;;;;1.55;93.51;100667.28;5037787;28;20485;-81
2021/01/01 06:58:37;;;;;;;53.80;26.88;;;;;;;1.47;93.84;100666.88;5036777;28;20093;-81
2021/01/01 07:01:04;;;;;;;47.53;25.42;;;;;;;1.57;93.93;100674.94;5050387;28;20074;-80
2021/01/01 07:03:36;;;;;;;55.58;29.15;;;;;;;1.62;93.82;100673.75;5046163;28;20033;-80
2021/01/01 07:06:02;;;;;;;59.58;30.00;;;;;;;1.76;92.95;100670.34;5050372;28;20421;-80
2021/01/01 07:08:43;;;;;;;59.92;30.67;;;;;;;1.80;92.79;100671.81;5051864;28;20033;-80
2021/01/01 07:11:17;;;;;;;62.55;31.42;;;;;;;1.77;92.37;100673.75;5031855;28;20026;-80
2021/01/01 07:13:50;;;;;;;58.42;31.05;;;;;;;1.65;93.10;100678.72;5034829;28;20068;-80
2021/01/01 07:16:20;;;;;;;60.10;30.77;;;;;;;1.64;92.93;100677.06;5047214;28;20488;-79
2021/01/01 07:18:46;;;;;;;59.20;30.30;;;;;;;1.67;92.92;100679.47;5031934;28;20120;-78
2021/01/01 07:21:15;;;;;;;63.47;32.20;;;;;;;1.70;92.46;100674.13;5022425;28;20043;-79
2021/01/01 07:23:41;;;;;;;58.67;30.60;;;;;;;1.61;93.17;100674.66;5030978;28;20068;-78
2021/01/01 07:26:07;;;;;;;65.88;29.98;;;;;;;1.64;92.95;100673.63;5007229;28;20037;-80
2021/01/01 07:28:33;;;;;;;55.35;29.85;;;;;;;1.65;92.78;100677.91;5038606;28;20094;-80
2021/01/01 07:30:59;;;;;;;56.35;28.67;;;;;;;1.62;93.02;100693.56;5041489;28;20470;-81
2021/01/01 07:33:30;;;;;;;51.22;28.27;;;;;;;1.54;93.23;100689.72;5034132;28;20159;-80
2021/01/01 07:35:58;;;;;;;54.33;28.27;;;;;;;1.60;92.91;100687.66;5036289;28;20029;-78
2021/01/01 07:38:26;;;;;;;57.97;28.42;;;;;;;1.61;92.80;100695.34;5027209;28;21730;-78
2021/01/01 07:40:52;;;;;;;47.70;26.50;;;;;;;1.52;93.49;100706.22;5015885;28;20501;-79
2021/01/01 07:43:19;;;;;;;52.65;28.25;;;;;;;1.51;93.74;100694.22;5030448;28;20035;-79
2021/01/01 07:45:44;;;;;;;52.47;26.52;;;;;;;1.41;93.80;100701.66;5039350;28;20123;-80
2021/01/01 07:48:10;;;;;;;48.33;24.92;;;;;;;1.33;94.58;100707.28;5045215;28;20585;-79
2021/01/01 07:50:37;;;;;;;53.58;27.73;;;;;;;1.32;94.89;100707.38;5047486;28;20039;-78
2021/01/01 07:53:04;;;;;;;56.75;28.13;;;;;;;1.52;94.67;100717.38;5029627;28;20059;-78
2021/01/01 07:55:30;;;;;;;53.47;28.15;;;;;;;1.48;93.88;100708.16;5031656;28;20406;-78
2021/01/01 07:57:59;;;;;;;54.55;28.15;;;;;;;1.38;94.31;100707.03;5042389;28;20079;-78
2021/01/01 08:00:28;;;;;;;56.63;29.67;;;;;;;1.54;93.44;100712.13;5062448;28;20588;-78
2021/01/01 08:02:54;;;;;;;58.97;30.00;;;;;;;1.42;93.85;100712.84;5007945;28;20077;-79
2021/01/01 08:05:20;;;;;;;56.28;29.83;;;;;;;1.30;94.30;100714.38;5048910;28;20040;-79
2021/01/01 08:07:45;;;;;;;54.10;28.10;;;;;;;1.25;94.96;100718.97;5009067;28;20660;-80
2021/01/01 08:10:11;;;;;;;56.55;28.75;;;;;;;1.30;94.96;100727.28;5050042;28;20482;-79
2021/01/01 08:12:37;;;;;;;57.38;28.70;;;;;;;1.30;94.81;100729.88;5042468;28;20018;-79
2021/01/01 08:15:04;;;;;;;56.95;27.92;;;;;;;1.38;94.46;100730.28;5037865;28;20083;-81
2021/01/01 08:17:29;;;;;;;58.63;29.45;;;;;;;1.42;94.05;100725.78;5013889;28;20368;-79
2021/01/01 08:19:58;;;;;;;51.20;28.15;;;;;;;1.58;93.62;100728.28;5031383;28;20040;-77
2021/01/01 08:22:29;;;;;;;56.60;29.38;;;;;;;1.65;93.14;100734.78;5052460;28;20090;-79
2021/01/01 08:24:57;;;;;;;61.22;30.30;;;;;;;1.48;93.87;100728.81;5058623;28;20133;-79
2021/01/01 08:27:25;;;;;;;60.70;29.73;;;;;;;1.65;93.75;100752.88;5048202;28;20106;-79
2021/01/01 08:29:54;;;;;;;57.95;28.02;;;;;;;1.54;93.82;100741.41;5066819;28;20121;-78
2021/01/01 08:32:20;;;;;;;50.17;27.40;;;;;;;1.58;93.92;100747.22;5045157;28;20033;-80
2021/01/01 08:34:50;;;;;;;64.13;30.67;;;;;;;1.71;93.30;100744.75;5062789;28;20033;-80
2021/01/01 08:37:24;;;;;;;55.45;28.55;;;;;;;1.70;93.73;100746.53;5046156;28;20029;-79
2021/01/01 08:40:10;;;;;;;57.75;28.92;;;;;;;1.82;93.06;100755.31;5034312;28;20059;-80
2021/01/01 08:42:40;;;;;;;51.33;28.10;;;;;;;1.84;92.28;100750.88;5028687;28;20037;-78
2021/01/01 08:45:08;;;;;;;57.85;28.73;;;;;;;1.85;92.31;100749.16;5043991;28;20040;-79
2021/01/01 08:47:45;;;;;;;50.97;25.50;;;;;;;1.86;92.40;100763.72;5067172;28;20090;-79
2021/01/01 08:50:25;;;;;;;57.97;28.92;;;;;;;1.83;92.50;100758.72;5033558;28;20044;-78
2021/01/01 08:52:58;;;;;;;56.22;30.98;;;;;;;1.83;92.49;100754.41;5049395;28;20037;-80
2021/01/01 08:55:24;;;;;;;50.55;27.98;;;;;;;1.72;93.43;100746.44;5050303;28;20044;-81
2021/01/01 08:57:49;;;;;;;54.85;29.08;;;;;;;1.71;93.62;100752.50;5033078;28;20091;-78
2021/01/01 09:00:16;;;;;;;57.75;28.63;;;;;;;1.79;93.38;100754.66;5033126;28;20037;-79
2021/01/01 09:02:41;;;;;;;53.97;28.17;;;;;;;1.93;92.16;100749.50;5049955;28;20045;-79
2021/01/01 09:05:10;;;;;;;55.28;28.58;;;;;;;1.92;92.38;100745.25;5065988;28;20040;-79
2021/01/01 09:07:36;;;;;;;54.10;28.05;;;;;;;1.97;92.17;100758.75;5013253;28;20108;-79
2021/01/01 09:10:15;;;;;;;55.25;27.65;;;;;;;1.97;92.43;100765.69;5050503;28;20117;-79
2021/01/01 09:12:41;;;;;;;57.05;27.75;;;;;;;1.92;92.72;100759.03;5060250;28;20033;-78
2021/01/01 09:15:07;;;;;;;54.13;26.58;;;;;;;2.02;92.80;100774.03;5047877;28;20087;-77
2021/01/01 09:17:33;;;;;;;60.63;30.23;;;;;;;1.92;93.08;100761.63;5016389;28;20037;-79
2021/01/01 09:20:04;;;;;;;64.70;30.20;;;;;;;1.97;92.84;100770.88;5022953;28;20041;-79
2021/01/01 09:22:40;;;;;;;53.75;28.33;;;;;;;1.95;93.24;100773.53;5013201;28;20434;-79
2021/01/01 09:25:24;;;;;;;54.90;28.67;;;;;;;2.18;91.70;100767.00;5013778;28;20049;-79
2021/01/01 09:27:51;;;;;;;49.92;27.10;;;;;;;2.29;91.09;100774.13;5053379;28;20168;-80
2021/01/01 09:30:19;;;;;;;47.90;25.25;;;;;;;2.24;91.27;100769.22;5029018;28;20447;-78
2021/01/01 09:32:46;;;;;;;45.75;25.58;;;;;;;2.28;90.74;100769.84;5012783;28;20038;-77
2021/01/01 09:35:13;;;;;;;45.10;23.42;;;;;;;2.35;90.64;100776.31;5046994;28;20041;-76
2021/01/01 09:37:55;;;;;;;48.28;24.95;;;;;;;2.30;90.95;100779.22;5043269;28;20065;-77
2021/01/01 09:40:23;;;;;;;48.40;24.27;;;;;;;2.28;90.73;100782.78;5044325;28;20067;-77
2021/01/01 09:42:48;;;;;;;46.47;25.48;;;;;;;2.34;90.04;100785.84;5041449;28;20041;-77
2021/01/01 09:45:14;;;;;;;52.70;27.40;;;;;;;2.33;90.44;100781.59;5027646;28;20037;-77
2021/01/01 09:47:40;;;;;;;54.80;29.05;;;;;;;2.27;89.90;100783.72;5052925;28;20036;-77
2021/01/01 09:50:07;;;;;;;50.03;27.02;;;;;;;2.28;90.20;100780.19;5041209;28;20087;-79
2021/01/01 09:52:33;;;;;;;51.20;28.05;;;;;;;2.34;89.71;100782.44;5050824;28;20383;-79
2021/01/01 09:54:58;;;;;;;49.72;26.38;;;;;;;2.26;90.26;100777.72;5048850;28;20052;-79
2021/01/01 09:57:24;;;;;;;54.60;28.45;;;;;;;2.24;90.33;100779.59;5042744;28;20094;-78
2021/01/01 09:59:49;;;;;;;48.15;26.55;;;;;;;2.31;89.94;100785.22;5041636;28;20068;-78
2021/01/01 10:02:15;;;;;;;50.42;27.13;;;;;;;2.38;89.10;100777.91;5050899;28;20510;-79
2021/01/01 10:04:40;;;;;;;46.60;27.17;;;;;;;2.28;89.99;100786.22;5035009;28;20168;-80
2021/01/01 10:07:06;;;;;;;47.97;27.08;;;;;;;2.08;90.59;100768.47;5051485;28;20175;-77
2021/01/01 10:09:31;;;;;;;47.15;26.35;;;;;;;2.29;89.81;100793.06;5052804;28;20041;-78
2021/01/01 10:12:01;;;;;;;44.22;26.00;;;;;;;2.28;90.28;100796.59;5047060;28;20028;-78
2021/01/01 10:14:27;;;;;;;48.72;25.58;;;;;;;2.24;90.67;100789.94;5033304;28;20025;-79
2021/01/01 10:16:52;;;;;;;49.28;27.40;;;;;;;2.23;90.74;100785.66;5031693;28;20143;-78
2021/01/01 10:19:18;;;;;;;49.97;27.73;;;;;;;2.41;89.59;100786.34;5042486;28;20033;-79
2021/01/01 10:21:45;;;;;;;48.25;25.77;;;;;;;2.44;89.61;100785.31;5031128;28;20040;-78
2021/01/01 10:24:10;;;;;;;53.72;30.35;;;;;;;2.62;88.41;100791.97;5038781;28;20029;-79
2021/01/01 10:26:36;;;;;;;53.10;29.83;;;;;;;2.63;88.08;100795.38;5025964;28;20029;-78
2021/01/01 10:29:02;;;;;;;50.85;27.55;;;;;;;2.69;88.07;100795.84;5042094;28;20083;-79
2021/01/01 10:31:27;;;;;;;55.95;29.73;;;;;;;2.52;88.57;100796.88;5025290;28;20244;-79
2021/01/01 10:33:53;;;;;;;50.33;27.60;;;;;;;2.75;89.14;100793.78;5049895;28;20048;-79
2021/01/01 10:36:18;;;;;;;48.28;26.52;;;;;;;2.68;87.33;100764.84;5019754;28;20048;-77
2021/01/01 10:38:44;;;;;;;44.42;26.55;;;;;;;3.05;86.73;100789.28;5051930;28;20442;-80
2021/01/01 10:41:13;;;;;;;48.55;26.77;;;;;;;3.19;86.02;100792.78;5044108;28;20056;-80
2021/01/01 10:43:40;;;;;;;40.80;25.20;;;;;;;3.34;86.05;100788.38;5040602;28;20041;-79
2021/01/01 10:46:05;;;;;;;49.70;28.25;;;;;;;3.38;84.64;100789.81;5044589;28;20028;-79
2021/01/01 10:48:31;;;;;;;49.92;29.35;;;;;;;3.35;85.51;100795.19;5041742;28;20094;-80
2021/01/01 10:50:56;;;;;;;46.58;26.50;;;;;;;3.51;85.51;100786.34;5048314;28;20108;-79
2021/01/01 10:53:22;;;;;;;43.33;25.73;;;;;;;3.53;84.81;100793.19;5054147;28;20041;-80
2021/01/01 10:55:50;;;;;;;41.13;23.75;;;;;;;3.56;84.33;100787.78;5025908;28;20029;-78
2021/01/01 10:58:23;;;;;;;43.55;25.77;;;;;;;3.51;85.41;100783.75;5041966;28;20037;-79
2021/01/01 11:00:56;;;;;;;41.10;23.00;;;;;;;3.60;85.27;100789.25;5039724;28;20116;-80
2021/01/01 11:03:22;;;;;;;34.05;20.52;;;;;;;3.57;85.58;100792.88;5028664;28;20068;-80
2021/01/01 11:05:48;;;;;;;35.50;19.40;;;;;;;3.47;85.92;100787.47;5041569;28;20103;-79
2021/01/01 11:08:14;;;;;;;36.58;20.38;;;;;;;3.52;86.21;100789.75;5031108;28;20044;-80
2021/01/01 11:10:39;;;;;;;32.20;18.42;;;;;;;3.49;86.88;100790.78;5016017;28;20037;-79
2021/01/01 11:13:06;;;;;;;38.15;20.25;;;;;;;3.40;86.41;100785.38;5055748;28;20041;-80
2021/01/01 12:22:05;;;;;;;31.95;18.83;;;;;;;3.27;88.65;100769.78;5018777;28;20056;-79
2021/01/01 12:26:58;;;;;;;35.38;20.58;;;;;;;3.38;88.15;100764.72;5047015;28;20079;-78
2021/01/01 12:29:25;;;;;;;32.67;19.45;;;;;;;3.46;87.70;100766.81;5044247;28;20082;-78